Impacts TAF Board
For situational awareness. Not to be used for flight planning purposes.
IDs:

KCLT - Charlotte/Douglas In, NC, US

Issued at 0800 UTC 27 Feb 2020
Updated at 0817 UTC 27 Feb 2020
Potential Impact None Slight Moderate High
Time<<27/21Z 27/22Z 27/23Z 28/00Z 28/01Z 28/02Z 28/03Z 28/04Z 28/05Z 28/06Z 28/07Z 28/08Z 28/09Z>>
Type PRVL PRVL PRVL PRVL PRVL PRVL PRVL PRVL PRVL PRVL PRVL PRVL PRVL
VIS >6 >6 >6 >6 >6 >6 >6 >6 >6 >6 >6 >6 >6
CIG -- -- -- -- -- -- -- -- -- -- -- -- --
Cover FEW FEW SKC SKC SKC SKC SKC SKC SKC SKC SKC FEW FEW
FltCat VFR VFR VFR VFR VFR VFR VFR VFR VFR VFR VFR VFR VFR
WX -- -- -- -- -- -- -- -- -- -- -- -- --
WDir 300 300 280 280 280 280 280 280 280 280 280 240 240
WSpd 13 13 8 8 8 8 8 8 8 8 8 4 4
WGst 21 21 -- -- -- -- -- -- -- -- -- -- --
Raw TAF
KCLT 270800Z 2708/2812 30011KT P6SM FEW045
  FM271400 30013G21KT P6SM FEW050
  FM272300 28008KT P6SM SKC
  FM280800 24004KT P6SM FEW250


METAR Board
Radar Display
Forecast Discussion
For situational awareness. Not to be used for flight planning purposes.